sensor_id;sensor_type;location;lat;lon;timestamp;P1;durP1;ratioP1;P2;durP2;ratioP2
48835;SDS011;62581;47.342;7.908;2024-02-26T00:00:06;7.93;;;3.83;;
48835;SDS011;62581;47.342;7.908;2024-02-26T00:02:35;6.40;;;3.25;;
48835;SDS011;62581;47.342;7.908;2024-02-26T00:05:04;6.70;;;3.80;;
48835;SDS011;62581;47.342;7.908;2024-02-26T00:07:31;7.10;;;4.30;;
48835;SDS011;62581;47.342;7.908;2024-02-26T00:10:00;5.40;;;3.40;;
48835;SDS011;62581;47.342;7.908;2024-02-26T00:12:27;8.90;;;4.15;;
48835;SDS011;62581;47.342;7.908;2024-02-26T00:14:54;6.47;;;3.88;;
48835;SDS011;62581;47.342;7.908;2024-02-26T00:17:23;7.65;;;3.00;;
48835;SDS011;62581;47.342;7.908;2024-02-26T00:19:50;5.43;;;3.42;;
48835;SDS011;62581;47.342;7.908;2024-02-26T00:22:18;5.00;;;2.90;;
48835;SDS011;62581;47.342;7.908;2024-02-26T00:24:45;4.90;;;2.92;;
48835;SDS011;62581;47.342;7.908;2024-02-26T00:27:13;4.53;;;3.00;;
48835;SDS011;62581;47.342;7.908;2024-02-26T00:29:40;3.67;;;3.05;;
48835;SDS011;62581;47.342;7.908;2024-02-26T00:32:07;4.03;;;3.05;;
48835;SDS011;62581;47.342;7.908;2024-02-26T00:34:34;4.18;;;3.05;;
48835;SDS011;62581;47.342;7.908;2024-02-26T00:37:01;6.18;;;3.60;;
48835;SDS011;62581;47.342;7.908;2024-02-26T00:39:28;5.13;;;3.42;;
48835;SDS011;62581;47.342;7.908;2024-02-26T00:41:55;5.78;;;2.80;;
48835;SDS011;62581;47.342;7.908;2024-02-26T00:44:23;5.20;;;2.85;;
48835;SDS011;62581;47.342;7.908;2024-02-26T00:46:50;4.65;;;2.58;;
48835;SDS011;62581;47.342;7.908;2024-02-26T00:49:17;3.83;;;2.15;;
48835;SDS011;62581;47.342;7.908;2024-02-26T00:51:44;3.85;;;2.63;;
48835;SDS011;62581;47.342;7.908;2024-02-26T00:54:11;3.65;;;2.30;;
48835;SDS011;62581;47.342;7.908;2024-02-26T00:56:38;2.17;;;1.98;;
48835;SDS011;62581;47.342;7.908;2024-02-26T00:59:05;3.38;;;2.45;;
48835;SDS011;62581;47.342;7.908;2024-02-26T01:01:33;3.17;;;1.45;;
48835;SDS011;62581;47.342;7.908;2024-02-26T01:04:00;2.28;;;1.65;;
48835;SDS011;62581;47.342;7.908;2024-02-26T01:06:28;6.70;;;2.35;;
48835;SDS011;62581;47.342;7.908;2024-02-26T01:08:55;2.67;;;1.60;;
48835;SDS011;62581;47.342;7.908;2024-02-26T01:11:22;3.17;;;1.70;;
48835;SDS011;62581;47.342;7.908;2024-02-26T01:13:49;4.05;;;1.95;;
48835;SDS011;62581;47.342;7.908;2024-02-26T01:16:18;2.40;;;1.40;;
48835;SDS011;62581;47.342;7.908;2024-02-26T01:18:47;2.65;;;1.58;;
48835;SDS011;62581;47.342;7.908;2024-02-26T01:21:14;2.72;;;1.40;;
48835;SDS011;62581;47.342;7.908;2024-02-26T01:23:41;1.33;;;1.23;;
48835;SDS011;62581;47.342;7.908;2024-02-26T01:26:08;2.13;;;1.38;;
48835;SDS011;62581;47.342;7.908;2024-02-26T01:28:35;2.47;;;1.50;;
48835;SDS011;62581;47.342;7.908;2024-02-26T01:31:02;2.40;;;1.88;;
48835;SDS011;62581;47.342;7.908;2024-02-26T01:33:31;2.13;;;1.23;;
48835;SDS011;62581;47.342;7.908;2024-02-26T01:36:00;3.58;;;1.35;;
48835;SDS011;62581;47.342;7.908;2024-02-26T01:38:26;2.28;;;1.27;;
48835;SDS011;62581;47.342;7.908;2024-02-26T01:40:53;3.13;;;1.30;;
48835;SDS011;62581;47.342;7.908;2024-02-26T01:43:20;0.73;;;0.70;;
48835;SDS011;62581;47.342;7.908;2024-02-26T01:45:48;2.90;;;1.58;;
48835;SDS011;62581;47.342;7.908;2024-02-26T01:48:15;1.90;;;1.20;;
48835;SDS011;62581;47.342;7.908;2024-02-26T01:50:42;3.53;;;1.48;;
48835;SDS011;62581;47.342;7.908;2024-02-26T01:53:11;1.85;;;1.30;;
48835;SDS011;62581;47.342;7.908;2024-02-26T01:55:38;2.47;;;1.63;;
48835;SDS011;62581;47.342;7.908;2024-02-26T01:58:05;1.80;;;1.23;;
48835;SDS011;62581;47.342;7.908;2024-02-26T02:00:32;2.58;;;1.50;;
48835;SDS011;62581;47.342;7.908;2024-02-26T02:03:00;5.53;;;1.17;;
48835;SDS011;62581;47.342;7.908;2024-02-26T02:05:28;1.83;;;1.25;;
48835;SDS011;62581;47.342;7.908;2024-02-26T02:07:55;3.50;;;1.30;;
48835;SDS011;62581;47.342;7.908;2024-02-26T02:10:24;2.78;;;1.40;;
48835;SDS011;62581;47.342;7.908;2024-02-26T02:12:52;1.90;;;1.50;;
48835;SDS011;62581;47.342;7.908;2024-02-26T02:15:19;2.25;;;1.30;;
48835;SDS011;62581;47.342;7.908;2024-02-26T02:17:46;2.78;;;1.67;;
48835;SDS011;62581;47.342;7.908;2024-02-26T02:20:15;2.70;;;1.73;;
48835;SDS011;62581;47.342;7.908;2024-02-26T02:27:38;1.92;;;1.17;;
48835;SDS011;62581;47.342;7.908;2024-02-26T02:30:06;1.83;;;1.00;;
48835;SDS011;62581;47.342;7.908;2024-02-26T02:32:35;3.25;;;1.10;;
48835;SDS011;62581;47.342;7.908;2024-02-26T02:35:04;2.67;;;1.20;;
48835;SDS011;62581;47.342;7.908;2024-02-26T02:37:31;1.63;;;1.00;;
48835;SDS011;62581;47.342;7.908;2024-02-26T02:39:59;1.60;;;1.13;;
48835;SDS011;62581;47.342;7.908;2024-02-26T02:44:53;2.42;;;1.00;;
48835;SDS011;62581;47.342;7.908;2024-02-26T02:47:20;2.33;;;1.20;;
48835;SDS011;62581;47.342;7.908;2024-02-26T02:49:47;1.92;;;1.00;;
48835;SDS011;62581;47.342;7.908;2024-02-26T02:52:14;1.55;;;1.20;;
48835;SDS011;62581;47.342;7.908;2024-02-26T02:54:41;2.30;;;1.20;;
48835;SDS011;62581;47.342;7.908;2024-02-26T02:57:09;1.45;;;1.08;;
48835;SDS011;62581;47.342;7.908;2024-02-26T02:59:37;1.73;;;1.20;;
48835;SDS011;62581;47.342;7.908;2024-02-26T03:02:04;1.25;;;1.15;;
48835;SDS011;62581;47.342;7.908;2024-02-26T03:04:31;2.40;;;1.45;;
48835;SDS011;62581;47.342;7.908;2024-02-26T03:06:58;2.20;;;1.20;;
48835;SDS011;62581;47.342;7.908;2024-02-26T03:09:25;1.52;;;1.30;;
48835;SDS011;62581;47.342;7.908;2024-02-26T03:11:52;1.42;;;1.30;;
48835;SDS011;62581;47.342;7.908;2024-02-26T03:14:21;2.40;;;1.50;;
48835;SDS011;62581;47.342;7.908;2024-02-26T03:16:48;2.30;;;1.42;;
48835;SDS011;62581;47.342;7.908;2024-02-26T03:19:15;1.55;;;1.13;;
48835;SDS011;62581;47.342;7.908;2024-02-26T03:21:42;1.38;;;1.10;;
48835;SDS011;62581;47.342;7.908;2024-02-26T03:24:09;2.33;;;1.10;;
48835;SDS011;62581;47.342;7.908;2024-02-26T03:26:37;1.13;;;1.05;;
48835;SDS011;62581;47.342;7.908;2024-02-26T03:29:04;2.63;;;0.80;;
48835;SDS011;62581;47.342;7.908;2024-02-26T03:31:32;1.13;;;1.00;;
48835;SDS011;62581;47.342;7.908;2024-02-26T03:33:59;1.10;;;1.00;;
48835;SDS011;62581;47.342;7.908;2024-02-26T03:36:26;0.95;;;0.80;;
48835;SDS011;62581;47.342;7.908;2024-02-26T03:38:53;1.17;;;0.90;;
48835;SDS011;62581;47.342;7.908;2024-02-26T03:41:20;0.68;;;0.63;;
48835;SDS011;62581;47.342;7.908;2024-02-26T03:43:47;1.35;;;1.00;;
48835;SDS011;62581;47.342;7.908;2024-02-26T03:46:14;0.80;;;0.70;;
48835;SDS011;62581;47.342;7.908;2024-02-26T03:48:42;0.70;;;0.70;;
48835;SDS011;62581;47.342;7.908;2024-02-26T03:51:09;1.02;;;0.75;;
48835;SDS011;62581;47.342;7.908;2024-02-26T03:53:36;0.80;;;0.80;;
48835;SDS011;62581;47.342;7.908;2024-02-26T03:56:04;0.85;;;0.70;;
48835;SDS011;62581;47.342;7.908;2024-02-26T03:58:31;0.60;;;0.60;;
48835;SDS011;62581;47.342;7.908;2024-02-26T04:00:58;0.60;;;0.60;;
48835;SDS011;62581;47.342;7.908;2024-02-26T04:03:25;0.50;;;0.50;;
48835;SDS011;62581;47.342;7.908;2024-02-26T04:05:54;0.90;;;0.63;;
48835;SDS011;62581;47.342;7.908;2024-02-26T04:08:20;0.60;;;0.52;;
48835;SDS011;62581;47.342;7.908;2024-02-26T04:10:47;0.55;;;0.55;;
48835;SDS011;62581;47.342;7.908;2024-02-26T04:13:14;0.60;;;0.60;;
48835;SDS011;62581;47.342;7.908;2024-02-26T04:15:41;1.20;;;0.60;;
48835;SDS011;62581;47.342;7.908;2024-02-26T04:18:08;1.00;;;0.60;;
48835;SDS011;62581;47.342;7.908;2024-02-26T04:20:35;0.57;;;0.45;;
48835;SDS011;62581;47.342;7.908;2024-02-26T04:23:04;1.13;;;0.50;;
48835;SDS011;62581;47.342;7.908;2024-02-26T04:25:31;0.65;;;0.57;;
48835;SDS011;62581;47.342;7.908;2024-02-26T04:27:58;0.63;;;0.63;;
48835;SDS011;62581;47.342;7.908;2024-02-26T04:30:25;1.63;;;0.60;;
48835;SDS011;62581;47.342;7.908;2024-02-26T04:32:52;0.52;;;0.52;;
48835;SDS011;62581;47.342;7.908;2024-02-26T04:35:19;0.60;;;0.50;;
48835;SDS011;62581;47.342;7.908;2024-02-26T04:37:46;1.17;;;0.70;;
48835;SDS011;62581;47.342;7.908;2024-02-26T04:40:14;0.65;;;0.60;;
48835;SDS011;62581;47.342;7.908;2024-02-26T04:42:41;0.80;;;0.80;;
48835;SDS011;62581;47.342;7.908;2024-02-26T04:45:08;0.88;;;0.55;;
48835;SDS011;62581;47.342;7.908;2024-02-26T04:47:35;0.63;;;0.60;;
48835;SDS011;62581;47.342;7.908;2024-02-26T04:50:02;0.60;;;0.60;;
48835;SDS011;62581;47.342;7.908;2024-02-26T04:52:30;0.55;;;0.55;;
48835;SDS011;62581;47.342;7.908;2024-02-26T04:54:56;1.00;;;0.52;;
48835;SDS011;62581;47.342;7.908;2024-02-26T04:57:26;1.23;;;0.70;;
48835;SDS011;62581;47.342;7.908;2024-02-26T04:59:53;0.60;;;0.60;;
48835;SDS011;62581;47.342;7.908;2024-02-26T05:02:20;0.68;;;0.68;;
48835;SDS011;62581;47.342;7.908;2024-02-26T05:04:47;0.95;;;0.50;;
48835;SDS011;62581;47.342;7.908;2024-02-26T05:07:14;0.57;;;0.57;;
48835;SDS011;62581;47.342;7.908;2024-02-26T05:09:42;0.68;;;0.60;;
48835;SDS011;62581;47.342;7.908;2024-02-26T05:12:09;0.77;;;0.77;;
48835;SDS011;62581;47.342;7.908;2024-02-26T05:14:38;0.52;;;0.52;;
48835;SDS011;62581;47.342;7.908;2024-02-26T05:17:06;0.50;;;0.50;;
48835;SDS011;62581;47.342;7.908;2024-02-26T05:19:32;0.82;;;0.70;;
48835;SDS011;62581;47.342;7.908;2024-02-26T05:21:59;0.50;;;0.50;;
48835;SDS011;62581;47.342;7.908;2024-02-26T05:24:26;0.63;;;0.60;;
48835;SDS011;62581;47.342;7.908;2024-02-26T05:26:53;1.67;;;0.43;;
48835;SDS011;62581;47.342;7.908;2024-02-26T05:29:20;0.68;;;0.60;;
48835;SDS011;62581;47.342;7.908;2024-02-26T05:31:49;0.60;;;0.60;;
48835;SDS011;62581;47.342;7.908;2024-02-26T05:34:16;0.60;;;0.60;;
48835;SDS011;62581;47.342;7.908;2024-02-26T05:36:43;0.55;;;0.50;;
48835;SDS011;62581;47.342;7.908;2024-02-26T05:39:10;0.70;;;0.70;;
48835;SDS011;62581;47.342;7.908;2024-02-26T05:41:37;0.82;;;0.75;;
48835;SDS011;62581;47.342;7.908;2024-02-26T05:44:04;0.82;;;0.73;;
48835;SDS011;62581;47.342;7.908;2024-02-26T05:46:34;1.20;;;0.60;;
48835;SDS011;62581;47.342;7.908;2024-02-26T05:49:03;0.80;;;0.80;;
48835;SDS011;62581;47.342;7.908;2024-02-26T05:51:29;0.98;;;0.82;;
48835;SDS011;62581;47.342;7.908;2024-02-26T05:53:56;2.97;;;1.20;;
48835;SDS011;62581;47.342;7.908;2024-02-26T05:56:23;0.77;;;0.70;;
48835;SDS011;62581;47.342;7.908;2024-02-26T05:58:50;1.35;;;0.80;;
48835;SDS011;62581;47.342;7.908;2024-02-26T06:03:46;1.25;;;0.90;;
48835;SDS011;62581;47.342;7.908;2024-02-26T06:06:14;1.30;;;0.80;;
48835;SDS011;62581;47.342;7.908;2024-02-26T06:08:41;3.47;;;1.40;;
48835;SDS011;62581;47.342;7.908;2024-02-26T06:11:08;0.77;;;0.65;;
48835;SDS011;62581;47.342;7.908;2024-02-26T06:13:35;1.60;;;1.00;;
48835;SDS011;62581;47.342;7.908;2024-02-26T06:16:02;1.58;;;0.98;;
48835;SDS011;62581;47.342;7.908;2024-02-26T06:18:30;3.55;;;0.88;;
48835;SDS011;62581;47.342;7.908;2024-02-26T06:20:56;1.48;;;0.98;;
48835;SDS011;62581;47.342;7.908;2024-02-26T06:23:25;1.23;;;0.80;;
48835;SDS011;62581;47.342;7.908;2024-02-26T06:25:52;1.48;;;0.88;;
48835;SDS011;62581;47.342;7.908;2024-02-26T06:28:19;2.60;;;1.00;;
48835;SDS011;62581;47.342;7.908;2024-02-26T06:30:46;2.58;;;1.00;;
48835;SDS011;62581;47.342;7.908;2024-02-26T06:33:12;2.17;;;1.10;;
48835;SDS011;62581;47.342;7.908;2024-02-26T06:35:40;0.95;;;0.90;;
48835;SDS011;62581;47.342;7.908;2024-02-26T06:38:07;1.58;;;0.93;;
48835;SDS011;62581;47.342;7.908;2024-02-26T06:40:35;2.85;;;1.40;;
48835;SDS011;62581;47.342;7.908;2024-02-26T06:43:03;1.13;;;0.98;;
48835;SDS011;62581;47.342;7.908;2024-02-26T06:45:30;2.50;;;1.00;;
48835;SDS011;62581;47.342;7.908;2024-02-26T06:47:57;1.33;;;0.90;;
48835;SDS011;62581;47.342;7.908;2024-02-26T06:50:24;1.35;;;0.93;;
48835;SDS011;62581;47.342;7.908;2024-02-26T06:52:51;2.63;;;0.90;;
48835;SDS011;62581;47.342;7.908;2024-02-26T06:55:18;3.80;;;1.25;;
48835;SDS011;62581;47.342;7.908;2024-02-26T06:57:47;2.40;;;1.30;;
48835;SDS011;62581;47.342;7.908;2024-02-26T07:00:14;2.08;;;1.23;;
48835;SDS011;62581;47.342;7.908;2024-02-26T07:02:41;2.97;;;1.57;;
48835;SDS011;62581;47.342;7.908;2024-02-26T07:05:09;6.85;;;2.00;;
48835;SDS011;62581;47.342;7.908;2024-02-26T07:07:36;1.35;;;1.10;;
48835;SDS011;62581;47.342;7.908;2024-02-26T07:10:03;1.85;;;1.05;;
48835;SDS011;62581;47.342;7.908;2024-02-26T07:12:31;1.52;;;1.33;;
48835;SDS011;62581;47.342;7.908;2024-02-26T07:14:59;2.28;;;1.30;;
48835;SDS011;62581;47.342;7.908;2024-02-26T07:17:27;1.65;;;1.40;;
48835;SDS011;62581;47.342;7.908;2024-02-26T07:19:54;2.53;;;1.63;;
48835;SDS011;62581;47.342;7.908;2024-02-26T07:22:21;2.63;;;1.40;;
48835;SDS011;62581;47.342;7.908;2024-02-26T07:24:49;1.80;;;1.02;;
48835;SDS011;62581;47.342;7.908;2024-02-26T07:27:16;2.05;;;0.90;;
48835;SDS011;62581;47.342;7.908;2024-02-26T07:29:44;1.30;;;0.95;;
48835;SDS011;62581;47.342;7.908;2024-02-26T07:32:13;3.00;;;1.73;;
48835;SDS011;62581;47.342;7.908;2024-02-26T07:34:40;1.52;;;1.00;;
48835;SDS011;62581;47.342;7.908;2024-02-26T07:37:09;2.35;;;1.27;;
48835;SDS011;62581;47.342;7.908;2024-02-26T07:39:36;2.67;;;1.15;;
48835;SDS011;62581;47.342;7.908;2024-02-26T07:42:03;1.38;;;0.98;;
48835;SDS011;62581;47.342;7.908;2024-02-26T07:44:31;1.35;;;1.08;;
48835;SDS011;62581;47.342;7.908;2024-02-26T07:46:59;1.83;;;1.30;;
48835;SDS011;62581;47.342;7.908;2024-02-26T07:49:26;1.50;;;0.93;;
48835;SDS011;62581;47.342;7.908;2024-02-26T07:51:53;1.10;;;1.00;;
48835;SDS011;62581;47.342;7.908;2024-02-26T07:54:23;1.15;;;1.05;;
48835;SDS011;62581;47.342;7.908;2024-02-26T07:56:49;1.77;;;1.08;;
48835;SDS011;62581;47.342;7.908;2024-02-26T07:59:16;2.25;;;1.23;;
48835;SDS011;62581;47.342;7.908;2024-02-26T08:01:43;1.30;;;1.10;;
48835;SDS011;62581;47.342;7.908;2024-02-26T08:04:11;1.17;;;0.93;;
48835;SDS011;62581;47.342;7.908;2024-02-26T08:06:39;1.52;;;1.00;;
48835;SDS011;62581;47.342;7.908;2024-02-26T08:09:06;2.10;;;1.20;;
48835;SDS011;62581;47.342;7.908;2024-02-26T08:11:33;1.00;;;1.00;;
48835;SDS011;62581;47.342;7.908;2024-02-26T08:14:00;1.42;;;0.98;;
48835;SDS011;62581;47.342;7.908;2024-02-26T08:16:27;1.33;;;1.05;;
48835;SDS011;62581;47.342;7.908;2024-02-26T08:18:54;1.67;;;0.80;;
48835;SDS011;62581;47.342;7.908;2024-02-26T08:21:21;2.72;;;1.20;;
48835;SDS011;62581;47.342;7.908;2024-02-26T08:23:50;0.80;;;0.77;;
48835;SDS011;62581;47.342;7.908;2024-02-26T08:26:16;1.60;;;1.02;;
48835;SDS011;62581;47.342;7.908;2024-02-26T08:28:45;0.85;;;0.73;;
48835;SDS011;62581;47.342;7.908;2024-02-26T08:31:14;1.85;;;0.90;;
48835;SDS011;62581;47.342;7.908;2024-02-26T08:33:41;1.25;;;0.82;;
48835;SDS011;62581;47.342;7.908;2024-02-26T08:36:08;4.38;;;1.38;;
48835;SDS011;62581;47.342;7.908;2024-02-26T08:38:35;1.25;;;0.77;;
48835;SDS011;62581;47.342;7.908;2024-02-26T08:41:03;1.27;;;0.98;;
48835;SDS011;62581;47.342;7.908;2024-02-26T08:43:30;0.98;;;0.80;;
48835;SDS011;62581;47.342;7.908;2024-02-26T08:45:57;5.03;;;1.10;;
48835;SDS011;62581;47.342;7.908;2024-02-26T08:48:24;2.33;;;0.98;;
48835;SDS011;62581;47.342;7.908;2024-02-26T08:50:51;1.10;;;1.00;;
48835;SDS011;62581;47.342;7.908;2024-02-26T08:53:18;1.30;;;0.70;;
48835;SDS011;62581;47.342;7.908;2024-02-26T08:55:46;1.85;;;0.85;;
48835;SDS011;62581;47.342;7.908;2024-02-26T08:58:14;4.05;;;0.88;;
48835;SDS011;62581;47.342;7.908;2024-02-26T09:00:41;2.47;;;1.02;;
48835;SDS011;62581;47.342;7.908;2024-02-26T09:03:08;1.60;;;1.10;;
48835;SDS011;62581;47.342;7.908;2024-02-26T09:05:34;1.42;;;0.77;;
48835;SDS011;62581;47.342;7.908;2024-02-26T09:08:01;1.20;;;1.05;;
48835;SDS011;62581;47.342;7.908;2024-02-26T09:10:29;1.80;;;0.90;;
48835;SDS011;62581;47.342;7.908;2024-02-26T09:12:57;1.70;;;1.13;;
48835;SDS011;62581;47.342;7.908;2024-02-26T09:15:25;0.95;;;0.85;;
48835;SDS011;62581;47.342;7.908;2024-02-26T09:17:52;1.10;;;1.00;;
48835;SDS011;62581;47.342;7.908;2024-02-26T09:20:19;2.67;;;1.27;;
48835;SDS011;62581;47.342;7.908;2024-02-26T09:22:46;2.05;;;1.20;;
48835;SDS011;62581;47.342;7.908;2024-02-26T09:25:13;0.80;;;0.80;;
48835;SDS011;62581;47.342;7.908;2024-02-26T09:27:41;1.88;;;1.10;;
48835;SDS011;62581;47.342;7.908;2024-02-26T09:30:09;4.43;;;0.90;;
48835;SDS011;62581;47.342;7.908;2024-02-26T09:32:38;1.52;;;1.20;;
48835;SDS011;62581;47.342;7.908;2024-02-26T09:35:06;1.27;;;0.95;;
48835;SDS011;62581;47.342;7.908;2024-02-26T09:37:33;1.60;;;1.10;;
48835;SDS011;62581;47.342;7.908;2024-02-26T09:40:02;2.58;;;1.02;;
48835;SDS011;62581;47.342;7.908;2024-02-26T09:42:30;1.53;;;0.90;;
48835;SDS011;62581;47.342;7.908;2024-02-26T09:44:59;2.28;;;1.17;;
48835;SDS011;62581;47.342;7.908;2024-02-26T09:47:28;1.85;;;1.20;;
48835;SDS011;62581;47.342;7.908;2024-02-26T09:49:59;1.55;;;1.05;;
48835;SDS011;62581;47.342;7.908;2024-02-26T09:52:29;1.73;;;1.00;;
48835;SDS011;62581;47.342;7.908;2024-02-26T09:54:59;1.65;;;1.00;;
48835;SDS011;62581;47.342;7.908;2024-02-26T09:57:28;1.48;;;1.05;;
48835;SDS011;62581;47.342;7.908;2024-02-26T09:59:56;1.95;;;1.25;;
48835;SDS011;62581;47.342;7.908;2024-02-26T10:02:28;5.20;;;1.10;;
48835;SDS011;62581;47.342;7.908;2024-02-26T10:04:56;1.27;;;1.17;;
48835;SDS011;62581;47.342;7.908;2024-02-26T10:07:26;2.85;;;1.00;;
48835;SDS011;62581;47.342;7.908;2024-02-26T10:09:56;3.88;;;1.02;;
48835;SDS011;62581;47.342;7.908;2024-02-26T10:12:23;1.55;;;1.02;;
48835;SDS011;62581;47.342;7.908;2024-02-26T10:14:52;7.65;;;1.38;;
48835;SDS011;62581;47.342;7.908;2024-02-26T10:17:20;3.42;;;1.20;;
48835;SDS011;62581;47.342;7.908;2024-02-26T10:19:47;1.42;;;1.02;;
48835;SDS011;62581;47.342;7.908;2024-02-26T10:24:46;2.03;;;1.10;;
48835;SDS011;62581;47.342;7.908;2024-02-26T10:27:13;2.55;;;1.10;;
48835;SDS011;62581;47.342;7.908;2024-02-26T10:29:41;1.95;;;1.23;;
48835;SDS011;62581;47.342;7.908;2024-02-26T10:32:09;1.85;;;1.17;;
48835;SDS011;62581;47.342;7.908;2024-02-26T10:34:38;1.05;;;0.93;;
48835;SDS011;62581;47.342;7.908;2024-02-26T10:37:06;2.60;;;1.23;;
48835;SDS011;62581;47.342;7.908;2024-02-26T10:39:36;1.95;;;1.50;;
48835;SDS011;62581;47.342;7.908;2024-02-26T10:42:04;1.98;;;1.42;;
48835;SDS011;62581;47.342;7.908;2024-02-26T10:44:34;2.05;;;1.10;;
48835;SDS011;62581;47.342;7.908;2024-02-26T10:47:01;1.27;;;0.95;;
48835;SDS011;62581;47.342;7.908;2024-02-26T10:49:29;1.85;;;1.25;;
48835;SDS011;62581;47.342;7.908;2024-02-26T10:51:56;0.80;;;0.80;;
48835;SDS011;62581;47.342;7.908;2024-02-26T10:54:24;1.77;;;0.98;;
48835;SDS011;62581;47.342;7.908;2024-02-26T10:56:54;2.08;;;1.10;;
48835;SDS011;62581;47.342;7.908;2024-02-26T10:59:23;2.50;;;1.15;;
48835;SDS011;62581;47.342;7.908;2024-02-26T11:01:50;3.05;;;1.10;;
48835;SDS011;62581;47.342;7.908;2024-02-26T11:04:17;2.13;;;1.30;;
48835;SDS011;62581;47.342;7.908;2024-02-26T11:06:45;2.70;;;1.33;;
48835;SDS011;62581;47.342;7.908;2024-02-26T11:09:14;2.08;;;1.30;;
48835;SDS011;62581;47.342;7.908;2024-02-26T11:11:42;1.17;;;0.98;;
48835;SDS011;62581;47.342;7.908;2024-02-26T11:14:11;1.33;;;1.23;;
48835;SDS011;62581;47.342;7.908;2024-02-26T11:16:40;2.15;;;1.20;;
48835;SDS011;62581;47.342;7.908;2024-02-26T11:19:08;2.00;;;1.23;;
48835;SDS011;62581;47.342;7.908;2024-02-26T11:21:36;1.73;;;1.10;;
48835;SDS011;62581;47.342;7.908;2024-02-26T11:24:07;4.80;;;1.80;;
48835;SDS011;62581;47.342;7.908;2024-02-26T11:26:39;2.17;;;1.00;;
48835;SDS011;62581;47.342;7.908;2024-02-26T11:29:11;1.67;;;1.20;;
48835;SDS011;62581;47.342;7.908;2024-02-26T11:31:42;1.48;;;1.20;;
48835;SDS011;62581;47.342;7.908;2024-02-26T11:34:09;2.67;;;1.00;;
48835;SDS011;62581;47.342;7.908;2024-02-26T11:36:38;2.70;;;1.23;;
48835;SDS011;62581;47.342;7.908;2024-02-26T11:39:05;1.15;;;1.05;;
48835;SDS011;62581;47.342;7.908;2024-02-26T11:41:33;1.63;;;1.53;;
48835;SDS011;62581;47.342;7.908;2024-02-26T11:44:03;1.55;;;1.00;;
48835;SDS011;62581;47.342;7.908;2024-02-26T11:46:34;1.65;;;1.20;;
48835;SDS011;62581;47.342;7.908;2024-02-26T11:51:57;1.65;;;1.10;;
48835;SDS011;62581;47.342;7.908;2024-02-26T11:54:38;4.75;;;1.63;;
48835;SDS011;62581;47.342;7.908;2024-02-26T11:57:19;2.17;;;1.42;;
48835;SDS011;62581;47.342;7.908;2024-02-26T11:59:50;4.18;;;1.52;;
48835;SDS011;62581;47.342;7.908;2024-02-26T12:05:14;3.63;;;1.42;;
48835;SDS011;62581;47.342;7.908;2024-02-26T12:07:44;3.67;;;1.50;;
48835;SDS011;62581;47.342;7.908;2024-02-26T12:10:15;1.90;;;1.42;;
48835;SDS011;62581;47.342;7.908;2024-02-26T12:12:48;1.95;;;1.02;;
48835;SDS011;62581;47.342;7.908;2024-02-26T12:15:15;2.45;;;1.67;;
48835;SDS011;62581;47.342;7.908;2024-02-26T12:17:48;2.58;;;1.48;;
48835;SDS011;62581;47.342;7.908;2024-02-26T12:20:16;1.80;;;1.20;;
48835;SDS011;62581;47.342;7.908;2024-02-26T12:22:44;1.95;;;1.20;;
48835;SDS011;62581;47.342;7.908;2024-02-26T12:25:12;1.20;;;1.10;;
48835;SDS011;62581;47.342;7.908;2024-02-26T12:27:40;2.75;;;1.38;;
48835;SDS011;62581;47.342;7.908;2024-02-26T12:30:07;1.42;;;1.10;;
48835;SDS011;62581;47.342;7.908;2024-02-26T12:32:35;2.20;;;1.58;;
48835;SDS011;62581;47.342;7.908;2024-02-26T12:48:14;3.20;;;1.85;;
48835;SDS011;62581;47.342;7.908;2024-02-26T12:50:44;1.80;;;1.27;;
48835;SDS011;62581;47.342;7.908;2024-02-26T12:53:12;2.67;;;1.27;;
48835;SDS011;62581;47.342;7.908;2024-02-26T12:55:39;4.07;;;1.60;;
48835;SDS011;62581;47.342;7.908;2024-02-26T12:58:07;1.48;;;1.20;;
48835;SDS011;62581;47.342;7.908;2024-02-26T13:00:34;3.92;;;1.33;;
48835;SDS011;62581;47.342;7.908;2024-02-26T13:03:02;4.20;;;1.60;;
48835;SDS011;62581;47.342;7.908;2024-02-26T13:05:31;3.30;;;1.40;;
48835;SDS011;62581;47.342;7.908;2024-02-26T13:07:59;3.05;;;1.40;;
48835;SDS011;62581;47.342;7.908;2024-02-26T13:10:26;2.92;;;1.50;;
48835;SDS011;62581;47.342;7.908;2024-02-26T13:12:53;1.40;;;1.25;;
48835;SDS011;62581;47.342;7.908;2024-02-26T13:15:21;1.77;;;1.20;;
48835;SDS011;62581;47.342;7.908;2024-02-26T13:17:48;1.98;;;1.52;;
48835;SDS011;62581;47.342;7.908;2024-02-26T13:20:25;1.42;;;1.23;;
48835;SDS011;62581;47.342;7.908;2024-02-26T13:23:00;3.42;;;1.60;;
48835;SDS011;62581;47.342;7.908;2024-02-26T13:25:27;2.75;;;1.42;;
48835;SDS011;62581;47.342;7.908;2024-02-26T13:28:04;3.60;;;1.20;;
48835;SDS011;62581;47.342;7.908;2024-02-26T13:30:32;3.95;;;1.48;;
48835;SDS011;62581;47.342;7.908;2024-02-26T13:33:06;5.35;;;1.73;;
48835;SDS011;62581;47.342;7.908;2024-02-26T13:35:35;2.72;;;1.20;;
48835;SDS011;62581;47.342;7.908;2024-02-26T13:40:32;1.83;;;1.27;;
48835;SDS011;62581;47.342;7.908;2024-02-26T13:42:59;3.85;;;1.08;;
48835;SDS011;62581;47.342;7.908;2024-02-26T13:45:26;7.07;;;1.50;;
48835;SDS011;62581;47.342;7.908;2024-02-26T13:47:53;2.78;;;1.60;;
48835;SDS011;62581;47.342;7.908;2024-02-26T13:50:20;3.90;;;1.63;;
48835;SDS011;62581;47.342;7.908;2024-02-26T13:52:48;4.82;;;1.85;;
48835;SDS011;62581;47.342;7.908;2024-02-26T13:55:20;2.58;;;1.48;;
48835;SDS011;62581;47.342;7.908;2024-02-26T13:57:48;1.85;;;1.30;;
48835;SDS011;62581;47.342;7.908;2024-02-26T14:00:17;1.80;;;1.50;;
48835;SDS011;62581;47.342;7.908;2024-02-26T14:02:44;2.63;;;1.50;;
48835;SDS011;62581;47.342;7.908;2024-02-26T14:05:11;4.03;;;1.52;;
48835;SDS011;62581;47.342;7.908;2024-02-26T14:07:38;1.38;;;1.25;;
48835;SDS011;62581;47.342;7.908;2024-02-26T14:10:06;3.33;;;1.55;;
48835;SDS011;62581;47.342;7.908;2024-02-26T14:12:36;2.53;;;1.60;;
48835;SDS011;62581;47.342;7.908;2024-02-26T14:17:31;2.88;;;1.52;;
48835;SDS011;62581;47.342;7.908;2024-02-26T14:19:58;1.83;;;1.13;;
48835;SDS011;62581;47.342;7.908;2024-02-26T14:22:25;2.45;;;1.42;;
48835;SDS011;62581;47.342;7.908;2024-02-26T14:24:52;3.40;;;1.87;;
48835;SDS011;62581;47.342;7.908;2024-02-26T14:27:19;1.77;;;1.27;;
48835;SDS011;62581;47.342;7.908;2024-02-26T14:29:48;2.85;;;1.30;;
48835;SDS011;62581;47.342;7.908;2024-02-26T14:32:15;2.60;;;1.20;;
48835;SDS011;62581;47.342;7.908;2024-02-26T14:34:43;5.78;;;1.67;;
48835;SDS011;62581;47.342;7.908;2024-02-26T14:37:10;2.78;;;1.38;;
48835;SDS011;62581;47.342;7.908;2024-02-26T14:39:37;1.70;;;1.23;;
48835;SDS011;62581;47.342;7.908;2024-02-26T14:42:04;4.60;;;1.50;;
48835;SDS011;62581;47.342;7.908;2024-02-26T14:44:32;2.70;;;1.30;;
48835;SDS011;62581;47.342;7.908;2024-02-26T14:47:00;2.33;;;1.60;;
48835;SDS011;62581;47.342;7.908;2024-02-26T14:49:27;3.53;;;1.40;;
48835;SDS011;62581;47.342;7.908;2024-02-26T14:51:56;2.65;;;1.83;;
48835;SDS011;62581;47.342;7.908;2024-02-26T14:54:23;1.40;;;1.10;;
48835;SDS011;62581;47.342;7.908;2024-02-26T14:56:50;4.03;;;1.42;;
48835;SDS011;62581;47.342;7.908;2024-02-26T14:59:17;4.25;;;1.70;;
48835;SDS011;62581;47.342;7.908;2024-02-26T15:01:44;2.10;;;1.70;;
48835;SDS011;62581;47.342;7.908;2024-02-26T15:04:12;4.15;;;1.45;;
48835;SDS011;62581;47.342;7.908;2024-02-26T15:06:41;1.85;;;1.38;;
48835;SDS011;62581;47.342;7.908;2024-02-26T15:09:07;2.97;;;1.40;;
48835;SDS011;62581;47.342;7.908;2024-02-26T15:11:37;5.82;;;1.50;;
48835;SDS011;62581;47.342;7.908;2024-02-26T15:14:04;4.05;;;1.88;;
48835;SDS011;62581;47.342;7.908;2024-02-26T15:16:31;3.03;;;1.90;;
48835;SDS011;62581;47.342;7.908;2024-02-26T15:18:58;2.55;;;1.67;;
48835;SDS011;62581;47.342;7.908;2024-02-26T15:21:27;2.78;;;1.40;;
48835;SDS011;62581;47.342;7.908;2024-02-26T15:23:53;2.50;;;1.20;;
48835;SDS011;62581;47.342;7.908;2024-02-26T15:26:20;1.92;;;1.30;;